Terminal Aerodrome Forecast
Issued by NWS Wilmington, OH

Current Version | Previous Version | Graphics & Text | Print | Product List | Glossary On
Versions: 1 2 3 4 5 6 7 8 9 10 11 12 13 14 15 16 17 18 19 20 21 22 23 24 25 26 27 28
458
FTUS41 KILN 302217 AAA
TAFDAY
TAF AMD
KDAY 302217Z 3022/0118 12012KT 4SM SHRA BR OVC008
     FM010300 18010KT 4SM BR VCSH OVC015
      TEMPO 0103/0107 2SM SHRA BR OVC008
     FM010700 21006KT 4SM BR OVC007
     FM011400 23006KT P6SM BKN015=

USA.gov is the U.S. government's official web portal to all federal, state and local government web resources and services.